Time;durP1;ratioP1;P1;durP2;ratioP2;P2;SDS_P1;SDS_P2;PMS_P1;PMS_P2;Temp;Humidity;BMP_temperature;BMP_pressure;BME280_temperature;BME280_humidity;BME280_pressure;Samples;Min_cycle;Max_cycle;Signal;HPM_P1;HPM_P2
2022/10/05 00:02:22;;;;;;;4.40;3.07;;;;;;;12.71;69.23;100687.55;1754410;80;21375;-73
2022/10/05 00:04:52;;;;;;;6.87;3.60;;;;;;;12.71;69.33;100676.28;1746267;81;21356;-73
2022/10/05 00:07:22;;;;;;;6.12;3.08;;;;;;;12.73;69.36;100680.02;1750659;81;21297;-74
2022/10/05 00:09:58;;;;;;;5.43;3.43;;;;;;;12.74;69.46;100682.98;1756031;80;21056;-71
2022/10/05 00:12:27;;;;;;;5.00;3.40;;;;;;;12.73;69.61;100686.72;1754192;81;21837;-72
2022/10/05 00:14:59;;;;;;;5.63;3.17;;;;;;;12.75;69.73;100688.61;1756383;81;21055;-72
2022/10/05 00:17:27;;;;;;;4.80;3.33;;;;;;;12.78;69.74;100694.77;1756212;80;21308;-72
2022/10/05 00:19:54;;;;;;;5.73;3.20;;;;;;;12.81;69.75;100684.86;1756245;80;21260;-72
2022/10/05 00:22:29;;;;;;;5.63;3.60;;;;;;;12.80;69.75;100691.27;1749514;81;21219;-72
2022/10/05 00:25:00;;;;;;;5.33;3.40;;;;;;;12.85;69.75;100695.31;1755848;80;21352;-73
2022/10/05 00:27:36;;;;;;;5.97;3.30;;;;;;;12.85;69.74;100705.48;1758202;80;21320;-75
2022/10/05 00:30:18;;;;;;;6.83;3.40;;;;;;;12.87;69.70;100707.92;1756971;81;21100;-73
2022/10/05 00:32:45;;;;;;;6.53;3.47;;;;;;;12.91;69.64;100700.94;1757159;81;21896;-74
2022/10/05 00:35:12;;;;;;;5.67;3.10;;;;;;;12.95;69.57;100703.34;1755078;80;21093;-73
2022/10/05 00:37:39;;;;;;;8.03;3.27;;;;;;;12.99;69.47;100711.65;1746032;80;21261;-73
2022/10/05 00:40:26;;;;;;;5.93;3.13;;;;;;;12.99;69.42;100715.13;1755805;80;21322;-74
2022/10/05 00:43:00;;;;;;;6.80;3.40;;;;;;;13.01;69.35;100717.56;1738327;81;21347;-73
2022/10/05 00:45:43;;;;;;;4.80;3.50;;;;;;;13.01;69.23;100729.08;1755821;80;21368;-72
2022/10/05 00:48:31;;;;;;;4.00;2.97;;;;;;;12.99;69.12;100720.49;1755697;81;21412;-72
2022/10/05 00:51:18;;;;;;;7.70;3.53;;;;;;;13.05;69.04;100731.48;1756159;81;21796;-72
2022/10/05 00:54:30;;;;;;;5.13;3.47;;;;;;;13.09;68.97;100731.75;1755687;80;21189;-73
2022/10/05 00:57:25;;;;;;;5.77;3.83;;;;;;;13.10;68.81;100734.18;1733430;80;21103;-72
2022/10/05 01:00:00;;;;;;;5.37;3.20;;;;;;;13.12;68.66;100737.92;1739570;81;21199;-73
2022/10/05 01:02:38;;;;;;;5.03;3.23;;;;;;;13.14;68.48;100746.52;1755760;80;21272;-72
2022/10/05 01:05:44;;;;;;;6.60;3.67;;;;;;;13.14;68.36;100742.48;1757957;81;21317;-72
2022/10/05 01:08:37;;;;;;;6.80;3.00;;;;;;;13.17;68.33;100751.34;1758678;81;21155;-72
2022/10/05 01:11:25;;;;;;;5.50;3.17;;;;;;;13.18;68.18;100755.63;1727044;80;21313;-72
2022/10/05 01:14:29;;;;;;;6.07;3.17;;;;;;;13.19;68.12;100754.54;1729462;80;21262;-72
2022/10/05 01:17:06;;;;;;;7.05;3.12;;;;;;;13.20;68.06;100768.23;1687687;85;21237;-72
2022/10/05 01:19:45;;;;;;;4.30;3.13;;;;;;;13.20;68.06;100768.23;1701205;81;21513;-73
2022/10/05 01:22:19;;;;;;;7.20;3.20;;;;;;;13.21;68.01;100770.38;1759414;81;21271;-73
2022/10/05 01:25:27;;;;;;;4.60;3.00;;;;;;;13.22;67.99;100772.78;1757565;81;21808;-74
2022/10/05 01:28:07;;;;;;;6.60;3.50;;;;;;;13.21;67.92;100783.80;1756031;81;21304;-73
2022/10/05 01:30:49;;;;;;;5.07;2.80;;;;;;;13.18;68.00;100781.10;1754889;80;21117;-72
2022/10/05 01:33:26;;;;;;;5.87;2.85;;;;;;;13.15;68.04;100789.14;1757865;80;21353;-73
2022/10/05 01:36:07;;;;;;;5.87;3.00;;;;;;;13.13;68.09;100794.53;1758853;81;21441;-73
2022/10/05 01:39:00;;;;;;;5.42;3.20;;;;;;;13.11;68.03;100792.64;1724664;81;21319;-73
2022/10/05 01:41:53;;;;;;;3.77;2.70;;;;;;;13.05;68.15;100791.02;1758123;81;21096;-72
2022/10/05 01:44:25;;;;;;;5.10;3.17;;;;;;;13.06;68.15;100801.50;1755953;81;21244;-72
2022/10/05 01:47:15;;;;;;;4.75;3.20;;;;;;;13.07;68.13;100803.64;1754548;80;21886;-71
2022/10/05 01:50:00;;;;;;;6.37;3.20;;;;;;;13.06;68.06;100800.67;1731484;82;21018;-72
2022/10/05 01:53:00;;;;;;;6.67;3.00;;;;;;;13.04;67.95;100808.20;1756510;81;21318;-72
2022/10/05 01:55:45;;;;;;;5.27;2.80;;;;;;;13.08;67.98;100815.97;1760023;79;21267;-72
2022/10/05 01:58:26;;;;;;;5.27;2.77;;;;;;;13.08;67.67;100827.49;1761807;81;21106;-72
2022/10/05 02:01:17;;;;;;;6.17;3.00;;;;;;;13.08;67.59;100818.11;1762167;81;21225;-72
2022/10/05 02:03:52;;;;;;;5.60;2.90;;;;;;;13.09;67.48;100838.48;1755528;79;21060;-73
2022/10/05 02:06:23;;;;;;;4.10;3.03;;;;;;;13.11;67.53;100833.66;1727619;83;21332;-74
2022/10/05 02:08:58;;;;;;;5.07;3.20;;;;;;;13.10;67.35;100831.27;1725140;83;21162;-74
2022/10/05 02:11:24;;;;;;;5.47;2.80;;;;;;;13.09;67.21;100841.16;1761941;81;21397;-73
2022/10/05 02:14:01;;;;;;;5.60;3.17;;;;;;;13.10;67.30;100835.29;1702470;81;21260;-72
2022/10/05 02:16:43;;;;;;;5.33;3.00;;;;;;;13.09;67.21;100833.12;1763696;79;21259;-72
2022/10/05 02:19:19;;;;;;;5.47;2.67;;;;;;;13.13;67.13;100850.84;1732551;81;21353;-72
2022/10/05 02:21:51;;;;;;;6.97;3.57;;;;;;;13.11;67.02;100847.61;1710896;82;21011;-72
2022/10/05 02:24:52;;;;;;;8.07;3.10;;;;;;;13.09;66.86;100849.20;1769313;80;21568;-73
2022/10/05 02:27:26;;;;;;;6.63;2.87;;;;;;;13.10;66.71;100866.12;1710362;83;21252;-74
2022/10/05 02:30:05;;;;;;;5.13;2.80;;;;;;;13.10;66.69;100862.11;1732835;82;21340;-75
2022/10/05 02:32:50;;;;;;;5.67;2.90;;;;;;;13.15;66.59;100862.09;1744147;80;21310;-75
2022/10/05 02:35:18;;;;;;;3.33;2.63;;;;;;;13.20;66.14;100869.36;1736715;81;21162;-73
2022/10/05 02:38:18;;;;;;;5.50;2.73;;;;;;;13.22;66.13;100884.09;1752064;81;21285;-71
2022/10/05 02:41:04;;;;;;;6.13;2.80;;;;;;;13.22;65.87;100878.73;1731787;82;21257;-72
2022/10/05 02:44:24;;;;;;;4.70;2.73;;;;;;;13.21;65.72;100872.30;1750730;79;21700;-72
2022/10/05 02:47:26;;;;;;;4.70;2.70;;;;;;;13.23;65.69;100875.00;1731924;82;21315;-73
2022/10/05 02:50:08;;;;;;;4.60;2.63;;;;;;;13.20;65.42;100887.59;1710793;83;21375;-71
2022/10/05 02:53:09;;;;;;;4.70;2.83;;;;;;;13.23;65.40;100892.44;1762182;81;21310;-72
2022/10/05 02:55:53;;;;;;;5.47;2.90;;;;;;;13.29;65.02;100898.62;1728384;81;21806;-74
2022/10/05 02:58:25;;;;;;;5.87;2.80;;;;;;;13.26;64.75;100895.95;1756711;81;21028;-72
2022/10/05 03:01:06;;;;;;;4.50;2.73;;;;;;;13.24;64.68;100903.96;1670834;84;21300;-75
2022/10/05 03:03:43;;;;;;;4.83;2.70;;;;;;;13.24;64.66;100892.72;1758027;80;21246;-73
2022/10/05 03:06:26;;;;;;;6.80;3.00;;;;;;;13.26;64.66;100894.61;1771445;81;21284;-72
2022/10/05 03:09:03;;;;;;;5.87;2.77;;;;;;;13.27;64.63;100889.52;1769901;80;21833;-75
2022/10/05 03:11:47;;;;;;;4.40;2.63;;;;;;;13.22;64.41;100888.66;1769320;80;21202;-74
2022/10/05 03:14:36;;;;;;;4.93;2.77;;;;;;;13.18;64.67;100887.05;1728631;83;21223;-73
2022/10/05 03:17:21;;;;;;;4.00;2.50;;;;;;;13.21;64.73;100895.91;1732422;80;21339;-72
2022/10/05 03:20:15;;;;;;;6.33;2.83;;;;;;;13.20;64.71;100882.77;1758822;81;21230;-72
2022/10/05 03:23:00;;;;;;;5.30;2.70;;;;;;;13.21;64.68;100893.22;1758984;81;21194;-72
2022/10/05 03:26:02;;;;;;;4.90;2.77;;;;;;;13.20;64.61;100905.03;1758218;81;21238;-72
2022/10/05 03:28:55;;;;;;;4.87;2.70;;;;;;;13.14;64.50;100901.52;1756963;80;21331;-74
2022/10/05 03:31:48;;;;;;;6.43;2.90;;;;;;;13.16;64.30;100911.97;1753754;80;21802;-72
2022/10/05 03:34:55;;;;;;;7.27;2.73;;;;;;;13.17;64.21;100914.95;1755615;80;21207;-72
2022/10/05 03:37:46;;;;;;;4.77;2.73;;;;;;;13.17;64.23;100925.67;1758774;81;21823;-72
2022/10/05 03:40:33;;;;;;;4.77;2.70;;;;;;;13.19;64.24;100930.22;1762632;81;21689;-71
2022/10/05 03:43:33;;;;;;;4.70;2.90;;;;;;;13.18;64.19;100935.86;1729665;81;21480;-73
2022/10/05 03:46:07;;;;;;;6.43;2.80;;;;;;;13.16;64.20;100926.73;1745352;81;21335;-73
2022/10/05 03:48:53;;;;;;;3.63;2.40;;;;;;;13.14;64.25;100928.34;1738219;81;21772;-73
2022/10/05 03:51:37;;;;;;;4.37;2.80;;;;;;;13.11;64.35;100924.05;1765458;80;21342;-71
2022/10/05 03:54:18;;;;;;;4.00;2.87;;;;;;;13.04;64.53;100927.52;1731382;81;21713;-74
2022/10/05 03:56:51;;;;;;;6.63;2.93;;;;;;;12.98;64.81;100929.38;1759005;81;21228;-74
2022/10/05 03:59:40;;;;;;;3.67;2.80;;;;;;;12.92;65.08;100934.45;1758659;81;21743;-74
2022/10/05 04:02:32;;;;;;;6.17;3.10;;;;;;;12.88;65.15;100934.17;1743527;80;21284;-73
2022/10/05 04:05:11;;;;;;;5.10;2.80;;;;;;;12.84;65.08;100937.64;1755452;81;21339;-73
2022/10/05 04:08:01;;;;;;;4.43;2.80;;;;;;;12.80;65.23;100937.88;1755948;81;21263;-73
2022/10/05 04:10:40;;;;;;;4.77;2.90;;;;;;;12.74;65.16;100940.29;1758247;80;21802;-73
2022/10/05 04:13:23;;;;;;;7.23;2.70;;;;;;;12.74;65.12;100949.67;1758702;81;21072;-73
2022/10/05 04:16:16;;;;;;;4.87;2.70;;;;;;;12.74;65.12;100954.49;1758824;81;21314;-73
2022/10/05 04:19:05;;;;;;;6.10;2.80;;;;;;;12.72;65.31;100961.98;1759041;81;21244;-75
2022/10/05 04:21:54;;;;;;;5.23;2.70;;;;;;;12.72;65.26;100963.31;1725204;81;21914;-73
2022/10/05 04:24:38;;;;;;;5.07;2.80;;;;;;;12.76;65.30;100955.02;1758666;80;21152;-71
2022/10/05 04:27:20;;;;;;;5.57;2.93;;;;;;;12.77;65.16;100959.88;1758982;81;21213;-72
2022/10/05 04:30:07;;;;;;;4.93;2.70;;;;;;;12.75;64.95;100958.78;1758822;80;21926;-73
2022/10/05 04:32:47;;;;;;;6.03;2.93;;;;;;;12.74;65.02;100961.20;1752960;81;21577;-73
2022/10/05 04:35:48;;;;;;;4.55;2.75;;;;;;;12.79;64.95;100964.42;1754390;80;21382;-73
2022/10/05 04:38:27;;;;;;;4.77;2.70;;;;;;;12.80;65.00;100971.38;1737801;81;21095;-74
2022/10/05 04:41:15;;;;;;;4.80;2.50;;;;;;;12.86;65.00;100981.06;1754405;80;21154;-73
2022/10/05 04:44:06;;;;;;;7.83;3.07;;;;;;;12.89;65.00;100977.33;1759410;80;21170;-75
2022/10/05 04:46:40;;;;;;;4.03;2.70;;;;;;;12.89;65.04;100984.56;1728207;81;21140;-74
2022/10/05 04:49:42;;;;;;;5.20;2.90;;;;;;;12.91;65.00;100972.52;1745887;81;21443;-73
2022/10/05 04:52:44;;;;;;;6.73;3.23;;;;;;;12.93;64.97;100968.22;1725742;83;21233;-74
2022/10/05 04:55:19;;;;;;;4.27;2.60;;;;;;;13.04;64.74;100977.13;1749036;81;21790;-72
2022/10/05 04:58:19;;;;;;;6.43;2.80;;;;;;;12.94;65.00;100985.14;1758992;81;21771;-72
2022/10/05 05:01:17;;;;;;;5.40;2.63;;;;;;;12.84;65.12;100999.30;1747547;81;21253;-72
2022/10/05 05:04:35;;;;;;;5.03;2.80;;;;;;;12.77;65.34;100996.86;1752860;81;21231;-74
2022/10/05 05:07:18;;;;;;;4.60;2.67;;;;;;;12.80;65.65;101006.23;1724054;83;21776;-73
2022/10/05 05:10:23;;;;;;;4.80;3.00;;;;;;;12.82;65.98;101022.88;1727161;81;21332;-74
2022/10/05 05:13:21;;;;;;;4.43;2.77;;;;;;;12.86;65.91;101023.95;1760400;81;21166;-73
2022/10/05 05:16:19;;;;;;;5.13;2.67;;;;;;;12.95;65.69;101033.13;1731818;82;21236;-74
2022/10/05 05:19:29;;;;;;;7.37;3.20;;;;;;;13.00;65.69;101028.34;1724090;82;21255;-73
2022/10/05 05:22:26;;;;;;;5.00;2.97;;;;;;;13.05;65.72;101040.41;1731586;82;21264;-74
2022/10/05 05:25:19;;;;;;;6.87;3.37;;;;;;;12.95;65.86;101042.52;1756232;80;21334;-72
2022/10/05 05:28:09;;;;;;;6.87;4.00;;;;;;;12.98;65.80;101047.35;1756903;81;21262;-72
2022/10/05 05:30:45;;;;;;;7.43;3.67;;;;;;;12.96;65.58;101055.38;1731676;82;21213;-73
2022/10/05 05:33:44;;;;;;;6.17;3.53;;;;;;;12.97;65.66;101057.81;1757034;80;21760;-73
2022/10/05 05:36:31;;;;;;;6.70;3.20;;;;;;;13.00;65.54;101060.52;1716582;81;21286;-72
2022/10/05 05:39:22;;;;;;;5.53;3.03;;;;;;;13.02;65.11;101064.53;1741349;80;21307;-73
2022/10/05 05:42:03;;;;;;;6.00;3.07;;;;;;;13.05;64.96;101056.50;1758844;81;21577;-73
2022/10/05 05:44:48;;;;;;;4.80;2.90;;;;;;;13.06;64.80;101062.96;1753086;80;21441;-74
2022/10/05 05:47:36;;;;;;;4.27;2.93;;;;;;;13.04;64.69;101058.92;1731408;80;21199;-73
2022/10/05 05:50:31;;;;;;;6.40;3.00;;;;;;;13.02;64.72;101066.41;1758526;80;21367;-72
2022/10/05 05:53:18;;;;;;;7.13;3.00;;;;;;;13.03;64.87;101066.67;1758404;80;21369;-72
2022/10/05 05:55:54;;;;;;;4.47;3.20;;;;;;;13.08;64.79;101066.17;1756627;80;21293;-74
2022/10/05 05:58:31;;;;;;;4.93;3.30;;;;;;;13.15;64.66;101072.64;1755961;80;21968;-72
2022/10/05 06:01:07;;;;;;;5.97;3.37;;;;;;;13.20;64.62;101074.55;1738342;80;21307;-72
2022/10/05 06:03:42;;;;;;;3.87;2.90;;;;;;;13.36;64.45;101073.05;1733790;81;21732;-72
2022/10/05 06:06:16;;;;;;;5.43;2.80;;;;;;;13.48;64.02;101080.85;1758881;80;21736;-73
2022/10/05 06:08:57;;;;;;;5.37;2.93;;;;;;;13.67;63.91;101075.81;1758109;80;21293;-73
2022/10/05 06:11:30;;;;;;;18.67;4.17;;;;;;;13.83;63.70;101084.72;1752957;80;21318;-75
2022/10/05 06:14:02;;;;;;;71.43;10.47;;;;;;;13.95;63.02;101092.51;1757965;80;21139;-74
2022/10/05 06:16:44;;;;;;;7.77;2.60;;;;;;;13.99;62.41;101098.98;1758152;80;21115;-74
2022/10/05 06:19:17;;;;;;;5.17;2.43;;;;;;;14.04;62.06;101101.66;1756818;80;21271;-73
2022/10/05 06:22:00;;;;;;;5.03;2.47;;;;;;;14.10;61.90;101106.52;1757528;80;21391;-73
2022/10/05 06:24:36;;;;;;;6.60;3.27;;;;;;;14.11;61.50;101112.14;1745805;81;21842;-73
2022/10/05 06:27:24;;;;;;;5.43;2.60;;;;;;;14.03;61.30;101117.52;1728799;83;21017;-73
2022/10/05 06:30:08;;;;;;;9.03;3.20;;;;;;;13.97;61.30;101122.60;1736771;80;21851;-73
2022/10/05 06:32:48;;;;;;;6.00;2.70;;;;;;;13.90;61.20;101128.23;1758420;81;21314;-73
2022/10/05 06:35:39;;;;;;;7.27;3.80;;;;;;;13.80;61.50;101123.64;1758324;80;21321;-73
2022/10/05 06:38:46;;;;;;;5.97;2.83;;;;;;;13.80;61.50;101123.64;1747263;80;21949;-73
2022/10/05 06:41:44;;;;;;;47.37;7.63;;;;;;;13.83;61.87;101131.70;1753042;80;21208;-73
2022/10/05 06:44:46;;;;;;;17.27;4.03;;;;;;;13.84;62.07;101131.97;1754162;80;21285;-72
2022/10/05 06:47:53;;;;;;;5.87;2.70;;;;;;;13.97;61.95;101134.15;1726898;83;21841;-74
2022/10/05 06:50:47;;;;;;;6.33;3.00;;;;;;;14.04;61.67;101128.52;1756866;80;21944;-75
2022/10/05 06:53:32;;;;;;;30.77;5.73;;;;;;;13.97;61.51;101123.95;1686731;81;21225;-74
2022/10/05 06:56:20;;;;;;;11.57;3.70;;;;;;;14.03;61.59;101125.03;1725870;83;21599;-74
2022/10/05 06:59:10;;;;;;;45.33;7.53;;;;;;;14.15;61.42;101138.23;1746192;80;21271;-74
2022/10/05 07:02:11;;;;;;;8.60;3.37;;;;;;;14.33;61.51;101126.69;1726934;81;21434;-75
2022/10/05 07:04:55;;;;;;;6.53;2.70;;;;;;;14.73;59.57;101128.58;1755453;81;21555;-74
2022/10/05 07:07:58;;;;;;;5.41;2.74;;;;;;;14.73;59.57;101128.58;1674857;80;9999701;-73
2022/10/05 07:10:52;;;;;;;4.83;2.40;;;;;;;14.53;58.92;101130.75;1624452;80;10000432;-73
2022/10/05 07:13:50;;;;;;;4.93;2.50;;;;;;;14.51;59.42;101129.69;1755439;80;21665;-74
2022/10/05 07:16:37;;;;;;;8.50;2.70;;;;;;;14.58;59.46;101140.17;1741481;81;21521;-74
2022/10/05 07:19:25;;;;;;;6.23;2.80;;;;;;;14.58;59.46;101140.17;1753141;81;21650;-73
2022/10/05 07:22:13;;;;;;;5.27;2.50;;;;;;;14.61;59.10;101146.36;1759642;81;21489;-74
2022/10/05 07:25:03;;;;;;;4.30;2.47;;;;;;;14.67;57.75;101154.66;1759327;80;21732;-74
2022/10/05 07:27:33;;;;;;;6.70;2.63;;;;;;;14.67;57.75;101154.66;1723022;83;21519;-74
2022/10/05 07:30:11;;;;;;;4.20;2.43;;;;;;;14.72;57.62;101156.56;1753311;80;21637;-74
2022/10/05 07:33:14;;;;;;;9.73;2.43;;;;;;;14.81;57.11;101160.84;1757230;81;21585;-74
2022/10/05 07:39:07;;;;;;;6.57;2.33;;;;;;;14.95;57.48;101161.38;1744621;81;21080;-76
2022/10/05 07:41:46;;;;;;;11.67;2.93;;;;;;;14.99;56.76;101171.05;1729110;81;21619;-76
2022/10/05 07:44:31;;;;;;;6.40;2.30;;;;;;;14.99;56.76;101171.05;1756856;81;22095;-75
2022/10/05 07:47:12;;;;;;;3.57;1.90;;;;;;;15.04;56.85;101176.44;1753221;81;22251;-75
2022/10/05 07:49:56;;;;;;;4.80;2.10;;;;;;;15.10;56.44;101182.05;1738630;81;21793;-74
2022/10/05 07:52:30;;;;;;;3.60;2.37;;;;;;;15.17;55.84;101182.60;1755909;81;21052;-75
2022/10/05 07:55:22;;;;;;;3.93;2.20;;;;;;;15.25;55.88;101186.06;1744570;80;21566;-76
2022/10/05 07:58:01;;;;;;;;;;;;;;;15.36;55.51;101188.19;1759865;81;21699;-75
2022/10/05 08:00:54;;;;;;;7.33;2.47;;;;;;;15.42;55.09;101191.14;1757362;81;21236;-73
2022/10/05 08:03:37;;;;;;;43.93;6.93;;;;;;;15.45;54.83;101189.25;1718334;81;21892;-76
2022/10/05 08:06:04;;;;;;;7.60;2.22;;;;;;;15.35;54.91;101188.48;1744953;81;21751;-76
2022/10/05 08:08:56;;;;;;;5.73;2.40;;;;;;;15.28;54.60;101183.38;1756908;81;21056;-75
2022/10/05 08:11:30;;;;;;;5.97;2.10;;;;;;;15.28;55.00;101178.54;1757195;81;21776;-73
2022/10/05 08:14:05;;;;;;;11.17;2.90;;;;;;;15.30;54.14;101179.05;1730118;81;21783;-76
2022/10/05 08:16:36;;;;;;;10.03;3.27;;;;;;;15.28;54.02;101178.54;1723399;82;22345;-77
2022/10/05 08:19:21;;;;;;;3.77;1.90;;;;;;;15.31;54.10;101172.61;1745022;81;21787;-75
2022/10/05 08:22:01;;;;;;;6.50;2.63;;;;;;;15.25;53.48;101176.65;1729925;82;21774;-76
2022/10/05 08:24:39;;;;;;;3.83;1.90;;;;;;;15.32;53.69;101186.33;1719086;82;21770;-76
2022/10/05 08:27:26;;;;;;;3.73;1.97;;;;;;;15.38;53.78;101182.55;1759976;81;21732;-75
2022/10/05 08:30:00;;;;;;;5.07;2.00;;;;;;;15.51;53.50;101179.27;1784001;79;21739;-76
2022/10/05 08:32:44;;;;;;;3.77;1.70;;;;;;;15.63;53.04;101182.98;1724308;83;22394;-78
2022/10/05 08:35:44;;;;;;;4.53;2.07;;;;;;;15.64;53.67;101167.91;1747760;81;21869;-74
2022/10/05 08:38:15;;;;;;;2.95;1.87;;;;;;;15.74;53.48;101189.98;1613842;80;9999982;-76
2022/10/05 08:41:18;;;;;;;4.10;1.83;;;;;;;15.87;52.85;101184.00;1750228;81;21080;-73
2022/10/05 08:44:08;;;;;;;3.83;1.60;;;;;;;15.93;52.50;101184.79;1740383;81;21790;-74
2022/10/05 08:47:04;;;;;;;3.87;1.77;;;;;;;15.94;52.15;101191.78;1737688;81;21787;-75
2022/10/05 08:50:07;;;;;;;3.50;2.27;;;;;;;15.94;52.42;101191.23;1755507;80;21717;-75
2022/10/05 08:52:51;;;;;;;3.63;1.90;;;;;;;15.97;52.76;101199.31;1756197;81;21736;-74
2022/10/05 08:55:43;;;;;;;3.90;2.17;;;;;;;16.05;53.00;101196.02;1739925;81;22535;-75
2022/10/05 08:58:18;;;;;;;3.77;1.73;;;;;;;16.13;53.00;101199.50;1756365;81;21797;-75
2022/10/05 09:01:23;;;;;;;6.57;2.27;;;;;;;16.08;52.26;101195.47;1756603;81;21764;-76
2022/10/05 09:04:17;;;;;;;3.97;2.10;;;;;;;15.97;52.41;101203.36;1741139;81;21786;-77
2022/10/05 09:07:32;;;;;;;25.23;4.00;;;;;;;15.94;53.20;101207.41;1756350;80;21729;-77
2022/10/05 09:10:42;;;;;;;42.37;5.30;;;;;;;15.98;53.14;101203.61;1755531;80;21755;-75
2022/10/05 09:13:33;;;;;;;10.43;2.47;;;;;;;16.10;53.45;101206.78;1754958;81;21771;-75
2022/10/05 09:16:30;;;;;;;2.95;1.60;;;;;;;16.24;53.32;101212.91;1753405;81;22248;-75
2022/10/05 09:19:49;;;;;;;3.63;1.50;;;;;;;16.38;52.39;101220.08;1723743;81;21056;-75
2022/10/05 09:22:55;;;;;;;3.07;1.70;;;;;;;16.35;50.98;101219.84;1705912;83;21139;-74
2022/10/05 09:25:45;;;;;;;5.27;2.00;;;;;;;16.27;51.53;101234.72;1748496;80;21708;-74
2022/10/05 09:28:23;;;;;;;2.87;1.50;;;;;;;16.07;51.84;101226.20;1758062;80;21141;-76
2022/10/05 09:30:58;;;;;;;3.77;1.97;;;;;;;16.04;52.25;101211.94;1760219;79;21575;-74
2022/10/05 09:33:38;;;;;;;4.77;1.57;;;;;;;16.08;51.81;101206.80;1755527;79;21579;-74
2022/10/05 09:36:33;;;;;;;3.23;1.50;;;;;;;16.08;51.81;101206.80;1714946;82;21224;-76
2022/10/05 09:39:24;;;;;;;5.20;1.60;;;;;;;16.11;51.17;101201.66;1727216;82;21691;-76
2022/10/05 09:42:15;;;;;;;5.40;1.77;;;;;;;16.03;51.16;101207.64;1765733;80;21649;-76
2022/10/05 09:45:10;;;;;;;3.23;1.70;;;;;;;16.09;51.19;101219.17;1756659;79;21691;-75
2022/10/05 09:48:08;;;;;;;4.53;2.00;;;;;;;16.02;51.45;101223.52;1757242;80;21749;-73
2022/10/05 09:50:43;;;;;;;2.63;1.57;;;;;;;15.93;51.76;101233.28;1756243;80;22327;-75
2022/10/05 09:53:39;;;;;;;4.27;1.70;;;;;;;15.92;51.91;101236.50;1758425;81;21646;-74
2022/10/05 09:56:27;;;;;;;3.33;1.60;;;;;;;15.99;51.51;101234.05;1740515;81;21649;-76
2022/10/05 09:59:17;;;;;;;6.03;1.93;;;;;;;16.17;51.41;101224.00;1759714;81;21666;-75
2022/10/05 10:02:13;;;;;;;6.47;2.10;;;;;;;16.17;51.41;101224.00;1759480;81;21140;-76
2022/10/05 10:05:10;;;;;;;4.20;2.10;;;;;;;16.26;51.32;101225.03;1761206;81;21246;-76
2022/10/05 10:08:21;;;;;;;7.03;1.90;;;;;;;16.44;51.35;101219.52;1759508;81;21752;-75
2022/10/05 10:11:08;;;;;;;3.10;1.50;;;;;;;16.50;51.08;101229.19;1761504;80;20973;-74
2022/10/05 10:14:17;;;;;;;12.67;2.57;;;;;;;16.65;50.80;101236.38;1761180;81;20986;-74
2022/10/05 10:17:01;;;;;;;34.90;5.03;;;;;;;16.75;50.48;101229.59;1760078;81;20937;-75
2022/10/05 10:19:58;;;;;;;4.60;1.73;;;;;;;16.81;49.87;101247.35;1761101;81;21147;-74
2022/10/05 10:22:59;;;;;;;3.63;1.43;;;;;;;16.77;49.39;101240.08;1764159;81;21002;-74
2022/10/05 10:26:10;;;;;;;3.33;1.60;;;;;;;16.76;49.27;101234.44;1764636;81;21668;-75
2022/10/05 10:29:18;;;;;;;5.67;1.90;;;;;;;16.74;49.71;101238.72;1762481;80;26601;-76
2022/10/05 10:32:06;;;;;;;3.13;1.40;;;;;;;16.76;49.44;101232.54;1757255;81;20952;-74
2022/10/05 10:34:45;;;;;;;2.73;1.50;;;;;;;16.73;49.10;101233.62;1725512;83;22284;-74
2022/10/05 10:37:44;;;;;;;2.80;1.40;;;;;;;16.76;48.57;101237.14;1725567;81;21031;-76
2022/10/05 10:40:35;;;;;;;4.93;2.03;;;;;;;16.73;48.61;101243.06;1764338;81;21060;-72
2022/10/05 10:43:25;;;;;;;2.47;1.50;;;;;;;16.80;49.12;101236.83;1747820;81;21044;-74
2022/10/05 10:46:31;;;;;;;3.80;1.47;;;;;;;16.81;48.81;101241.13;1714913;81;21474;-74
2022/10/05 10:49:37;;;;;;;2.60;1.50;;;;;;;16.82;48.92;101240.06;1759665;81;21157;-73
2022/10/05 10:52:32;;;;;;;3.73;1.57;;;;;;;16.90;48.89;101238.64;1718902;81;21004;-76
2022/10/05 10:55:24;;;;;;;3.57;1.40;;;;;;;16.93;48.30;101244.27;1759163;80;21068;-75
2022/10/05 10:58:13;;;;;;;2.30;1.37;;;;;;;16.95;48.44;101235.36;1759434;81;21558;-75
2022/10/05 11:01:15;;;;;;;5.47;1.60;;;;;;;16.97;48.62;101230.47;1723090;81;21543;-75
2022/10/05 11:04:20;;;;;;;4.17;1.50;;;;;;;16.97;47.33;101233.72;1728583;81;21250;-74
2022/10/05 11:07:27;;;;;;;2.83;1.20;;;;;;;16.98;47.70;101234.80;1760187;81;20989;-75
2022/10/05 11:10:08;;;;;;;3.20;1.43;;;;;;;17.01;48.23;101237.45;1759342;81;20977;-75
2022/10/05 11:13:17;;;;;;;3.03;1.40;;;;;;;17.00;48.57;101231.80;1758299;81;21083;-76
2022/10/05 11:16:09;;;;;;;4.10;1.60;;;;;;;17.01;48.63;101230.19;1738470;81;20985;-74
2022/10/05 11:19:07;;;;;;;3.03;1.60;;;;;;;17.03;48.74;101219.09;1758824;81;20993;-76
2022/10/05 11:22:01;;;;;;;3.53;1.60;;;;;;;17.08;48.65;101215.81;1754288;81;21444;-75
2022/10/05 11:24:53;;;;;;;2.70;1.50;;;;;;;17.11;48.46;101208.50;1728627;83;21039;-75
2022/10/05 11:27:58;;;;;;;2.83;1.37;;;;;;;17.17;48.26;101213.28;1731749;82;21027;-75
2022/10/05 11:31:06;;;;;;;3.97;1.60;;;;;;;17.21;48.20;101229.71;1751657;80;21067;-75
2022/10/05 11:34:09;;;;;;;3.30;1.30;;;;;;;17.23;47.72;101226.99;1756452;81;21260;-75
2022/10/05 11:36:57;;;;;;;2.35;1.10;;;;;;;17.44;46.70;101214.11;1759037;81;21579;-77
2022/10/05 11:40:03;;;;;;;3.63;1.40;;;;;;;17.57;47.15;101230.98;1758691;81;21005;-74
2022/10/05 11:43:09;;;;;;;3.10;1.40;;;;;;;17.52;46.32;101226.97;1736289;81;21550;-74
2022/10/05 11:46:25;;;;;;;3.70;1.53;;;;;;;17.47;46.42;101211.36;1760890;81;21514;-74
2022/10/05 11:49:12;;;;;;;3.37;1.27;;;;;;;17.41;46.45;101224.13;1761815;81;21220;-75
2022/10/05 11:52:09;;;;;;;2.93;1.57;;;;;;;17.29;46.39;101229.11;1726052;83;21040;-76
2022/10/05 11:54:44;;;;;;;3.07;1.20;;;;;;;17.23;46.47;101220.80;1756033;81;21025;-74
2022/10/05 11:57:26;;;;;;;3.33;1.37;;;;;;;17.11;46.43;101220.64;1758950;81;21603;-74
2022/10/05 12:00:05;;;;;;;2.33;1.30;;;;;;;17.04;46.63;101223.39;1728612;83;21134;-74
2022/10/05 12:03:11;;;;;;;2.87;1.30;;;;;;;17.03;46.77;101219.09;1728860;83;21053;-73
2022/10/05 12:06:09;;;;;;;2.83;1.40;;;;;;;17.03;46.93;101226.64;1728556;83;21034;-73
2022/10/05 12:09:03;;;;;;;3.47;1.30;;;;;;;17.06;46.72;101229.33;1756173;81;21520;-76
2022/10/05 12:12:08;;;;;;;3.50;1.57;;;;;;;17.05;47.03;101244.72;1758589;81;21044;-73
2022/10/05 12:14:57;;;;;;;3.53;1.57;;;;;;;17.05;47.03;101244.72;1758889;81;21056;-74
2022/10/05 12:17:49;;;;;;;2.60;1.10;;;;;;;17.03;46.87;101237.44;1757947;80;21123;-73
2022/10/05 12:20:50;;;;;;;3.58;1.50;;;;;;;17.03;47.23;101246.88;1758960;81;20979;-75
2022/10/05 12:23:36;;;;;;;1.83;1.20;;;;;;;17.05;47.41;101251.47;1758610;81;21060;-74
2022/10/05 12:26:09;;;;;;;2.87;1.47;;;;;;;17.01;47.42;101250.42;1756976;81;21099;-74
2022/10/05 12:28:58;;;;;;;6.77;1.50;;;;;;;17.02;47.76;101260.13;1739789;81;21101;-75
2022/10/05 12:31:52;;;;;;;3.30;1.37;;;;;;;17.01;47.86;101262.57;1758193;81;21139;-75
2022/10/05 12:34:54;;;;;;;3.23;1.40;;;;;;;17.03;48.46;101268.47;1758237;81;21602;-74
2022/10/05 12:37:55;;;;;;;2.72;1.50;;;;;;;17.04;48.72;101264.67;1758582;81;21052;-74
2022/10/05 12:40:46;;;;;;;2.83;1.50;;;;;;;16.99;48.06;101271.48;1759020;81;21021;-74
2022/10/05 12:43:45;;;;;;;4.10;1.50;;;;;;;16.96;48.21;101272.05;1738365;81;21499;-74
2022/10/05 12:46:44;;;;;;;3.10;1.60;;;;;;;16.95;48.31;101277.73;1758496;81;21720;-75
2022/10/05 12:49:31;;;;;;;2.97;1.50;;;;;;;16.93;48.14;101269.91;1655958;86;21744;-73
2022/10/05 12:51:59;;;;;;;2.97;1.43;;;;;;;16.80;47.69;101279.99;1746840;81;21009;-75
2022/10/05 12:54:50;;;;;;;5.03;1.30;;;;;;;16.81;48.42;101284.30;1758605;81;21013;-76
2022/10/05 12:57:22;;;;;;;4.67;1.40;;;;;;;16.81;48.42;101284.30;1758113;81;20954;-74
2022/10/05 13:00:09;;;;;;;2.77;1.30;;;;;;;16.91;48.56;101292.86;1758375;81;22352;-76
2022/10/05 13:02:51;;;;;;;3.13;1.20;;;;;;;16.91;48.56;101292.86;1758846;80;20992;-75
2022/10/05 13:05:47;;;;;;;2.50;1.27;;;;;;;16.90;48.44;101287.20;1757902;81;21020;-76